Time;durP1;ratioP1;P1;durP2;ratioP2;P2;SDS_P1;SDS_P2;PMS_P1;PMS_P2;Temp;Humidity;BMP_temperature;BMP_pressure;BME280_temperature;BME280_humidity;BME280_pressure;Samples;Min_cycle;Max_cycle;Signal;HPM_P1;HPM_P2
2022/05/21 00:02:20;;;;;;;1.30;1.20;;;;;;;18.11;62.30;99140.44;4952911;28;39971;-77
2022/05/21 00:04:47;;;;;;;1.40;1.30;;;;;;;18.03;62.80;99137.59;4952190;28;40646;-76
2022/05/21 00:07:15;;;;;;;1.67;1.57;;;;;;;17.95;62.75;99140.09;4952616;28;41682;-77
2022/05/21 00:09:44;;;;;;;1.63;1.30;;;;;;;17.83;63.04;99146.53;4953543;28;42272;-76
2022/05/21 00:12:12;;;;;;;1.30;1.20;;;;;;;17.67;63.11;99132.81;4952620;28;40894;-77
2022/05/21 00:14:39;;;;;;;1.50;1.40;;;;;;;17.65;62.87;99137.44;4936377;28;41742;-77
2022/05/21 00:17:07;;;;;;;1.20;1.10;;;;;;;17.56;63.26;99139.03;4954750;28;43787;-76
2022/05/21 00:19:34;;;;;;;1.80;1.70;;;;;;;17.48;62.87;99137.03;4968294;28;41111;-77
2022/05/21 00:22:01;;;;;;;2.40;1.40;;;;;;;17.40;63.04;99134.19;4936636;28;38833;-76
2022/05/21 00:24:29;;;;;;;2.10;1.20;;;;;;;17.29;63.26;99136.94;4936574;28;41782;-77
2022/05/21 00:26:59;;;;;;;1.30;1.20;;;;;;;17.16;63.36;99121.06;4952427;28;42689;-76
2022/05/21 00:29:28;;;;;;;4.13;1.43;;;;;;;17.15;63.36;99131.91;4968115;28;41324;-76
2022/05/21 00:31:56;;;;;;;1.30;1.20;;;;;;;17.10;63.71;99139.47;4936133;28;39921;-77
2022/05/21 00:34:24;;;;;;;1.50;1.40;;;;;;;17.02;63.83;99149.97;4968315;28;40251;-76
2022/05/21 00:36:51;;;;;;;1.40;1.20;;;;;;;16.96;64.43;99147.78;4952082;28;43787;-77
2022/05/21 00:39:19;;;;;;;1.23;1.13;;;;;;;16.77;64.53;99130.63;4953606;28;43147;-76
2022/05/21 00:41:47;;;;;;;1.50;1.40;;;;;;;16.82;64.48;99144.44;4935661;28;39981;-77
2022/05/21 00:44:17;;;;;;;2.23;1.30;;;;;;;16.77;64.95;99148.50;4936235;28;41104;-77
2022/05/21 00:46:47;;;;;;;1.87;1.77;;;;;;;16.72;65.04;99159.56;4951869;28;43719;-77
2022/05/21 00:49:19;;;;;;;1.63;1.13;;;;;;;16.70;64.87;99171.38;4968119;28;41189;-77
2022/05/21 00:51:53;;;;;;;1.10;1.00;;;;;;;16.62;65.19;99163.97;4953026;28;39633;-77
2022/05/21 00:54:23;;;;;;;1.40;1.30;;;;;;;16.61;64.83;99180.97;4935724;28;41834;-77
2022/05/21 00:56:58;;;;;;;1.53;1.43;;;;;;;16.56;65.42;99179.66;4967450;28;43008;-78
2022/05/21 01:02:18;;;;;;;1.40;1.30;;;;;;;16.36;65.93;99173.25;4952293;28;39909;-76
2022/05/21 01:04:46;;;;;;;1.53;1.27;;;;;;;16.38;66.04;99190.03;4967679;28;40483;-77
2022/05/21 01:07:14;;;;;;;1.40;1.13;;;;;;;16.30;66.35;99190.66;4951688;28;42716;-76
2022/05/21 01:09:48;;;;;;;1.87;1.60;;;;;;;16.30;66.03;99197.81;4967354;28;42989;-77
2022/05/21 01:12:16;;;;;;;1.63;1.20;;;;;;;16.26;66.21;99209.72;4936018;28;38865;-77
2022/05/21 01:14:48;;;;;;;1.60;1.50;;;;;;;16.19;66.27;99206.69;4935214;28;42113;-76
2022/05/21 01:17:18;;;;;;;1.60;1.20;;;;;;;16.10;66.33;99205.59;4949850;28;42873;-77
2022/05/21 01:20:02;;;;;;;1.37;1.27;;;;;;;16.11;66.50;99215.31;4967090;28;43389;-78
2022/05/21 01:22:32;;;;;;;1.00;1.00;;;;;;;16.04;66.73;99219.44;4967622;28;40105;-78
2022/05/21 01:24:59;;;;;;;2.00;1.43;;;;;;;16.00;66.66;99226.00;4950988;28;42818;-78
2022/05/21 01:27:28;;;;;;;1.43;1.10;;;;;;;15.96;66.66;99232.53;4935367;28;41180;-77
2022/05/21 01:29:57;;;;;;;1.27;1.10;;;;;;;15.91;66.89;99237.41;4935162;28;41049;-77
2022/05/21 01:32:25;;;;;;;1.20;1.10;;;;;;;15.84;67.15;99236.16;4952645;28;40194;-77
2022/05/21 01:34:53;;;;;;;1.00;1.00;;;;;;;15.82;67.75;99235.47;4934916;28;43429;-76
2022/05/21 01:37:20;;;;;;;1.93;1.37;;;;;;;15.80;67.58;99234.72;4951271;28;42951;-77
2022/05/21 01:39:50;;;;;;;1.10;1.10;;;;;;;15.76;67.85;99243.94;4950954;28;43245;-79
2022/05/21 01:42:17;;;;;;;1.03;1.03;;;;;;;15.70;67.58;99245.25;4935230;28;38847;-77
2022/05/21 01:44:46;;;;;;;1.43;1.10;;;;;;;15.63;67.80;99238.69;4934589;28;41900;-77
2022/05/21 01:47:16;;;;;;;1.10;1.00;;;;;;;15.62;67.80;99244.16;4951116;28;43726;-77
2022/05/21 01:49:44;;;;;;;1.00;1.00;;;;;;;15.56;67.84;99248.16;4966625;28;43705;-77
2022/05/21 01:52:12;;;;;;;1.30;1.20;;;;;;;15.52;67.78;99251.13;4952376;28;40822;-77
2022/05/21 01:54:40;;;;;;;1.53;1.23;;;;;;;15.49;67.24;99256.69;4952192;28;42526;-77
2022/05/21 01:57:10;;;;;;;1.87;1.20;;;;;;;15.45;67.07;99267.59;4935120;28;42222;-78
2022/05/21 01:59:38;;;;;;;1.47;1.10;;;;;;;15.42;66.99;99264.34;4951602;28;42214;-78
2022/05/21 02:02:06;;;;;;;1.00;1.00;;;;;;;15.36;66.84;99268.31;4951031;28;40975;-77
2022/05/21 02:04:34;;;;;;;1.20;1.10;;;;;;;15.27;66.86;99260.16;4966813;28;42807;-78
2022/05/21 02:07:01;;;;;;;1.17;1.10;;;;;;;15.29;66.83;99272.41;4949844;28;41623;-77
2022/05/21 02:09:29;;;;;;;1.27;1.17;;;;;;;15.22;66.66;99276.50;4951260;28;43245;-77
2022/05/21 02:11:56;;;;;;;2.10;1.13;;;;;;;15.17;66.75;99278.69;4951944;28;41821;-77
2022/05/21 02:14:25;;;;;;;1.63;1.30;;;;;;;14.98;67.33;99256.97;4950729;28;42786;-77
2022/05/21 02:16:53;;;;;;;1.73;1.10;;;;;;;15.04;67.30;99292.06;4950754;28;43615;-77
2022/05/21 02:19:21;;;;;;;1.33;1.23;;;;;;;14.98;67.16;99289.00;4934503;28;44027;-77
2022/05/21 02:21:49;;;;;;;1.00;1.00;;;;;;;14.93;67.18;99285.81;4950185;28;38712;-77
2022/05/21 02:24:16;;;;;;;1.03;1.00;;;;;;;14.87;66.74;99280.94;4934676;28;41844;-76
2022/05/21 02:26:44;;;;;;;1.30;1.13;;;;;;;14.78;66.57;99281.59;4934225;28;42157;-76
2022/05/21 02:29:11;;;;;;;1.50;1.40;;;;;;;14.78;66.68;99292.28;4966678;28;41699;-77
2022/05/21 02:31:40;;;;;;;1.73;1.30;;;;;;;14.73;66.64;99292.59;4950335;28;40014;-76
2022/05/21 02:34:08;;;;;;;1.70;1.60;;;;;;;14.36;66.96;99252.56;4951760;28;41479;-77
2022/05/21 02:39:29;;;;;;;1.40;1.30;;;;;;;14.58;66.64;99307.91;4912592;28;41197;-77
2022/05/21 02:41:57;;;;;;;1.37;1.23;;;;;;;14.54;66.47;99314.41;4950312;28;40223;-76
2022/05/21 02:44:26;;;;;;;1.60;1.33;;;;;;;14.49;66.55;99313.88;4934089;28;41913;-77
2022/05/21 02:46:55;;;;;;;1.97;1.20;;;;;;;14.42;66.37;99320.63;4934204;28;42026;-77
2022/05/21 02:49:23;;;;;;;1.57;1.47;;;;;;;14.40;66.43;99319.88;4966347;28;41357;-77
2022/05/21 02:51:52;;;;;;;1.40;1.30;;;;;;;14.34;66.34;99325.59;4950274;28;40676;-77
2022/05/21 02:54:20;;;;;;;1.37;1.23;;;;;;;14.29;66.63;99323.25;4951623;28;41657;-76
2022/05/21 02:56:50;;;;;;;1.10;1.00;;;;;;;14.25;66.35;99334.22;4966092;28;41053;-78
2022/05/21 02:59:18;;;;;;;1.97;1.87;;;;;;;14.20;66.53;99334.56;4950028;28;42031;-77
2022/05/21 03:01:46;;;;;;;1.17;1.07;;;;;;;13.89;66.61;99293.22;4933807;28;39718;-77
2022/05/21 03:04:16;;;;;;;1.20;1.10;;;;;;;14.09;66.53;99337.13;4951597;28;41762;-77
2022/05/21 03:06:43;;;;;;;3.50;1.33;;;;;;;14.10;66.69;99353.94;4949743;28;43852;-77
2022/05/21 03:11:55;;;;;;;1.20;1.10;;;;;;;14.00;67.30;99348.38;4966158;28;40179;-78
2022/05/21 03:14:23;;;;;;;1.50;1.40;;;;;;;13.66;67.49;99291.28;4934132;28;40795;-77
2022/05/21 03:16:56;;;;;;;1.30;1.20;;;;;;;13.84;67.64;99321.97;4934159;28;42801;-77
2022/05/21 03:19:25;;;;;;;2.40;1.20;;;;;;;14.01;67.33;99350.94;4966382;28;42235;-76
2022/05/21 03:21:52;;;;;;;2.30;1.30;;;;;;;14.08;67.20;99358.53;4951746;28;39968;-76
2022/05/21 03:24:20;;;;;;;1.50;1.40;;;;;;;14.15;67.44;99359.81;4969226;28;40730;-78
2022/05/21 03:26:48;;;;;;;2.43;1.90;;;;;;;14.26;67.02;99366.09;4937118;28;43078;-77
2022/05/21 03:29:16;;;;;;;2.00;1.30;;;;;;;14.35;67.07;99360.13;4953043;28;42129;-76
2022/05/21 03:31:43;;;;;;;1.30;1.20;;;;;;;14.46;66.80;99366.56;4936684;28;39945;-78
2022/05/21 03:34:11;;;;;;;2.00;1.80;;;;;;;14.63;67.20;99374.19;4937088;28;41764;-77
2022/05/21 03:36:40;;;;;;;2.23;1.43;;;;;;;14.71;66.66;99370.03;4954034;28;42678;-77
2022/05/21 03:39:08;;;;;;;1.60;1.43;;;;;;;14.79;66.56;99369.50;4936864;28;41401;-76
2022/05/21 03:41:36;;;;;;;1.07;1.07;;;;;;;14.88;66.66;99373.31;4954128;28;40094;-77
2022/05/21 03:44:04;;;;;;;1.53;1.30;;;;;;;14.94;66.48;99375.53;4937040;28;40656;-77
2022/05/21 03:46:32;;;;;;;1.63;1.53;;;;;;;14.93;66.51;99361.34;4953544;28;43673;-76
2022/05/21 03:49:00;;;;;;;1.60;1.50;;;;;;;15.06;66.38;99372.00;4953365;28;41968;-77
2022/05/21 03:51:27;;;;;;;1.60;1.50;;;;;;;14.80;65.86;99333.00;4968356;28;41879;-77
2022/05/21 03:53:56;;;;;;;3.27;1.33;;;;;;;15.14;65.95;99380.28;4937088;28;40447;-78
2022/05/21 03:56:24;;;;;;;1.60;1.50;;;;;;;15.06;65.68;99380.84;4936234;28;42013;-77
2022/05/21 03:58:52;;;;;;;2.60;1.43;;;;;;;15.05;65.51;99375.63;4952703;28;43295;-77
2022/05/21 04:01:20;;;;;;;1.37;1.07;;;;;;;15.13;65.54;99386.56;4936051;28;38899;-77
2022/05/21 04:03:50;;;;;;;1.37;1.27;;;;;;;15.13;65.35;99389.25;4936439;28;41924;-77
2022/05/21 04:06:17;;;;;;;1.67;1.57;;;;;;;15.09;65.61;99387.75;4936010;28;41768;-76
2022/05/21 04:08:46;;;;;;;1.27;1.17;;;;;;;15.06;65.37;99394.19;4936255;28;42471;-77
2022/05/21 04:11:16;;;;;;;1.73;1.17;;;;;;;15.03;65.41;99393.53;4951774;28;40961;-77
2022/05/21 04:13:43;;;;;;;1.30;1.20;;;;;;;14.99;65.49;99398.25;4936121;28;40699;-77
2022/05/21 04:16:11;;;;;;;1.33;1.23;;;;;;;14.96;65.79;99392.28;4935862;28;43134;-76
2022/05/21 04:18:39;;;;;;;1.70;1.60;;;;;;;14.92;65.68;99401.47;4936295;28;42804;-78
2022/05/21 04:21:06;;;;;;;2.53;2.30;;;;;;;14.85;65.45;99402.84;4935900;28;39919;-77
2022/05/21 04:23:34;;;;;;;1.53;1.27;;;;;;;14.87;65.26;99414.25;4936542;28;42375;-76
2022/05/21 04:26:03;;;;;;;2.07;1.10;;;;;;;14.83;64.98;99408.31;4935247;28;41549;-77
2022/05/21 04:28:32;;;;;;;2.53;1.13;;;;;;;14.60;64.71;99380.59;4951939;28;42091;-77
2022/05/21 04:31:00;;;;;;;2.43;1.30;;;;;;;14.73;65.01;99408.09;4968030;28;38876;-77
2022/05/21 04:33:27;;;;;;;1.60;1.23;;;;;;;14.81;64.98;99418.25;4951763;28;42900;-77
2022/05/21 04:38:41;;;;;;;2.57;1.83;;;;;;;14.61;64.55;99387.63;4935880;28;42899;-77
2022/05/21 04:41:09;;;;;;;1.77;1.57;;;;;;;14.84;64.45;99425.16;4950932;28;43274;-76
2022/05/21 04:43:39;;;;;;;2.07;1.53;;;;;;;14.77;63.86;99408.75;4951333;28;40895;-76
2022/05/21 04:46:07;;;;;;;1.40;1.30;;;;;;;14.89;64.29;99428.34;4935374;28;41672;-76
2022/05/21 04:48:34;;;;;;;1.63;1.53;;;;;;;14.74;63.87;99400.94;4951848;28;42325;-76
2022/05/21 04:51:04;;;;;;;1.40;1.30;;;;;;;14.95;63.65;99428.78;4951648;28;38962;-77
2022/05/21 04:53:32;;;;;;;1.50;1.37;;;;;;;15.14;63.65;99438.13;4935608;28;41777;-76
2022/05/21 04:56:00;;;;;;;1.33;1.23;;;;;;;15.17;63.25;99420.09;4950696;28;42647;-76
2022/05/21 04:58:28;;;;;;;1.67;1.50;;;;;;;15.23;62.75;99411.63;4935391;28;41197;-77
2022/05/21 05:00:58;;;;;;;1.57;1.47;;;;;;;15.36;62.69;99440.94;4951235;28;39068;-76
2022/05/21 05:03:26;;;;;;;1.90;1.20;;;;;;;15.29;62.31;99440.53;4935278;28;43102;-77
2022/05/21 05:05:54;;;;;;;1.53;1.43;;;;;;;15.32;62.20;99450.16;4967289;28;43236;-76
2022/05/21 05:08:23;;;;;;;1.33;1.30;;;;;;;15.24;61.66;99440.00;4951514;28;43217;-76
2022/05/21 05:10:52;;;;;;;1.73;1.20;;;;;;;15.38;61.56;99453.22;4951360;28;39877;-76
2022/05/21 05:13:20;;;;;;;1.40;1.30;;;;;;;15.51;61.27;99457.66;4951407;28;41919;-76
2022/05/21 05:15:47;;;;;;;1.37;1.27;;;;;;;15.65;61.31;99465.53;4952063;28;43860;-78
2022/05/21 05:18:19;;;;;;;1.23;1.20;;;;;;;15.74;60.80;99459.50;4935285;28;41220;-77
2022/05/21 05:20:47;;;;;;;2.40;1.40;;;;;;;15.89;60.33;99457.53;4951367;28;39895;-76
2022/05/21 05:23:15;;;;;;;1.73;1.40;;;;;;;15.92;60.28;99442.13;4936000;28;40683;-76
2022/05/21 05:25:42;;;;;;;2.00;1.30;;;;;;;16.02;60.50;99458.31;4935114;28;41866;-77
2022/05/21 05:28:15;;;;;;;1.90;1.13;;;;;;;16.01;60.18;99464.63;4951511;28;43239;-76
2022/05/21 05:30:43;;;;;;;1.10;1.00;;;;;;;16.04;60.54;99462.59;4951448;28;40930;-77
2022/05/21 05:33:11;;;;;;;2.80;1.30;;;;;;;16.04;60.60;99467.94;4943775;28;41753;-77
2022/05/21 05:35:41;;;;;;;1.60;1.20;;;;;;;16.05;60.32;99463.44;4959559;28;42736;-77
2022/05/21 05:38:10;;;;;;;1.60;1.47;;;;;;;15.97;60.83;99458.66;4947069;28;42710;-76
2022/05/21 05:40:41;;;;;;;1.30;1.20;;;;;;;15.93;60.87;99465.22;4961187;28;39903;-76
2022/05/21 05:43:09;;;;;;;2.20;1.57;;;;;;;15.90;60.78;99462.75;4969063;28;41776;-76
2022/05/21 05:45:37;;;;;;;2.43;1.77;;;;;;;15.84;60.65;99459.69;4954105;28;42575;-77
2022/05/21 05:48:05;;;;;;;3.43;1.80;;;;;;;15.71;60.29;99417.00;4972284;28;43194;-77
2022/05/21 05:50:33;;;;;;;2.30;1.90;;;;;;;16.24;60.44;99468.22;4954324;28;40385;-77
2022/05/21 05:53:04;;;;;;;3.57;2.60;;;;;;;16.42;60.22;99465.00;4970638;28;40454;-77
2022/05/21 05:55:33;;;;;;;2.07;1.87;;;;;;;16.57;59.88;99464.81;4954298;28;44289;-76
2022/05/21 05:59:48;;;;;;;3.10;2.80;;;;;;;16.66;59.76;99462.28;4954826;28;42258;-77
2022/05/21 06:00:47;;;;;;;2.43;2.10;;;;;;;16.73;59.14;99466.19;4954595;28;39790;-78
2022/05/21 06:03:15;;;;;;;2.40;2.20;;;;;;;16.80;59.45;99458.53;4970803;28;40701;-77
2022/05/21 06:05:42;;;;;;;2.90;2.67;;;;;;;16.91;58.93;99458.56;4969746;28;41820;-77
2022/05/21 06:08:12;;;;;;;2.47;2.27;;;;;;;17.02;58.23;99460.38;4970835;28;42201;-77
2022/05/21 06:10:43;;;;;;;2.77;2.30;;;;;;;17.20;58.13;99467.78;4951211;28;39849;-77
2022/05/21 06:13:14;;;;;;;2.43;2.00;;;;;;;17.20;58.48;99459.75;4935707;28;40568;-77
2022/05/21 06:15:42;;;;;;;2.00;1.87;;;;;;;17.30;58.14;99465.22;4951033;28;42530;-77
2022/05/21 06:18:12;;;;;;;2.30;2.10;;;;;;;17.69;57.51;99473.69;4950649;28;41634;-78
2022/05/21 06:20:40;;;;;;;2.60;2.40;;;;;;;17.83;57.40;99473.41;4936475;28;43162;-77
2022/05/21 06:23:08;;;;;;;2.67;2.10;;;;;;;17.87;56.55;99474.88;4959012;28;41790;-77
2022/05/21 06:25:37;;;;;;;2.10;1.80;;;;;;;17.94;56.67;99468.00;4966298;28;41868;-77
2022/05/21 06:28:06;;;;;;;2.87;2.30;;;;;;;17.92;55.99;99478.03;4960928;28;43046;-77
2022/05/21 06:30:36;;;;;;;2.40;2.13;;;;;;;18.00;55.93;99463.97;4954234;28;39366;-77
2022/05/21 06:33:17;;;;;;;3.53;1.83;;;;;;;18.33;54.79;99481.75;4954896;28;40753;-77
2022/05/21 06:35:45;;;;;;;2.33;1.80;;;;;;;18.21;54.53;99460.34;4954871;28;44934;-77
2022/05/21 06:38:13;;;;;;;2.07;1.80;;;;;;;18.17;54.74;99442.84;4954625;28;42213;-77
2022/05/21 06:40:44;;;;;;;2.83;2.27;;;;;;;18.46;53.66;99487.78;4971632;28;40893;-76
2022/05/21 06:43:12;;;;;;;3.17;2.20;;;;;;;18.58;53.33;99490.28;4952622;28;40721;-77
2022/05/21 06:45:39;;;;;;;2.60;1.87;;;;;;;18.63;53.15;99490.75;4952590;28;41785;-77
2022/05/21 06:48:09;;;;;;;2.10;1.90;;;;;;;18.79;52.37;99492.94;4970224;28;42287;-77
2022/05/21 06:50:39;;;;;;;2.87;1.57;;;;;;;18.91;52.60;99496.44;4952902;28;39109;-77
2022/05/21 06:53:07;;;;;;;1.90;1.67;;;;;;;19.15;52.44;99490.75;4952880;28;42103;-79
2022/05/21 06:55:35;;;;;;;1.83;1.73;;;;;;;19.33;51.19;99499.88;4954167;28;44767;-77
2022/05/21 06:58:05;;;;;;;1.83;1.63;;;;;;;19.36;50.58;99499.59;4972369;28;42216;-77
2022/05/21 07:00:33;;;;;;;1.60;1.50;;;;;;;19.47;51.05;99502.19;4955347;28;40538;-77
2022/05/21 07:03:00;;;;;;;2.17;1.60;;;;;;;19.44;50.74;99501.59;4971836;28;41820;-77
2022/05/21 07:08:16;;;;;;;1.70;1.60;;;;;;;19.60;50.47;99502.81;4970392;28;42355;-78
2022/05/21 07:10:44;;;;;;;1.70;1.37;;;;;;;19.64;49.34;99515.00;4955648;28;41172;-77
2022/05/21 07:13:15;;;;;;;1.77;1.67;;;;;;;20.15;48.63;99527.41;4972009;28;42325;-77
2022/05/21 07:15:43;;;;;;;1.87;1.20;;;;;;;20.30;48.41;99523.31;4970357;28;42702;-77
2022/05/21 07:18:12;;;;;;;1.60;1.20;;;;;;;20.70;47.68;99525.03;4955516;28;41711;-78
2022/05/21 07:20:40;;;;;;;1.10;1.00;;;;;;;21.62;46.31;99531.44;4973051;28;39944;-78
2022/05/21 07:23:07;;;;;;;1.53;0.90;;;;;;;22.47;43.73;99536.44;4972008;28;41703;-78
2022/05/21 07:25:35;;;;;;;1.23;0.90;;;;;;;23.79;41.95;99551.53;4955195;28;41618;-78
2022/05/21 07:28:04;;;;;;;3.47;1.23;;;;;;;24.15;40.02;99556.72;4972022;28;41317;-78
2022/05/21 07:30:33;;;;;;;2.10;1.07;;;;;;;24.25;39.30;99584.50;4972883;28;39874;-78
2022/05/21 07:33:00;;;;;;;2.13;1.57;;;;;;;23.81;38.90;99576.56;4973472;28;41731;-77
2022/05/21 07:35:28;;;;;;;2.37;0.90;;;;;;;23.37;40.73;99564.16;4973458;28;43484;-77
2022/05/21 07:37:56;;;;;;;3.40;1.10;;;;;;;22.94;41.48;99560.47;4973428;28;42233;-77
2022/05/21 07:40:25;;;;;;;1.20;1.10;;;;;;;22.61;42.07;99550.38;4973175;28;40003;-78
2022/05/21 07:42:53;;;;;;;0.80;0.80;;;;;;;22.39;42.77;99544.44;4973431;28;41708;-77
2022/05/21 07:45:21;;;;;;;1.13;0.90;;;;;;;22.26;42.57;99548.50;4968426;28;43604;-77
2022/05/21 07:47:51;;;;;;;0.77;0.70;;;;;;;22.08;43.29;99552.06;4960930;28;42070;-78
2022/05/21 07:50:20;;;;;;;1.83;0.80;;;;;;;21.89;43.37;99557.53;4969391;28;39210;-77
2022/05/21 07:52:48;;;;;;;1.00;0.80;;;;;;;21.75;43.31;99566.13;4957115;28;41718;-78
2022/05/21 07:55:16;;;;;;;1.17;0.80;;;;;;;21.68;43.50;99552.41;4957035;28;41950;-77
2022/05/21 07:57:43;;;;;;;1.40;1.03;;;;;;;21.63;43.30;99560.09;4972967;28;42405;-78
2022/05/21 08:00:17;;;;;;;2.27;0.80;;;;;;;21.70;42.87;99545.00;4972876;28;41270;-77
2022/05/21 08:02:46;;;;;;;1.50;0.90;;;;;;;21.82;43.30;99562.69;4956855;28;41887;-78
2022/05/21 08:05:15;;;;;;;1.70;0.87;;;;;;;21.72;43.48;99561.88;4972262;28;42734;-79
2022/05/21 08:07:49;;;;;;;2.53;1.13;;;;;;;21.60;42.71;99573.88;4954862;28;43245;-76
2022/05/21 08:10:17;;;;;;;2.07;1.00;;;;;;;21.42;43.72;99564.84;4936767;28;38906;-78
2022/05/21 08:12:45;;;;;;;1.00;0.90;;;;;;;21.29;43.92;99564.31;4953706;28;41715;-77
2022/05/21 08:15:12;;;;;;;2.03;0.90;;;;;;;21.18;44.35;99551.84;4938009;28;43322;-77
2022/05/21 08:17:40;;;;;;;1.83;0.80;;;;;;;21.37;44.48;99549.13;4953518;28;42011;-77
2022/05/21 08:20:11;;;;;;;1.03;0.93;;;;;;;21.55;44.06;99538.41;4954566;28;39747;-77
2022/05/21 08:28:14;;;;;;;0.97;0.87;;;;;;;22.82;42.82;99561.72;4968628;28;42655;-78
2022/05/21 08:30:42;;;;;;;1.27;0.83;;;;;;;23.00;42.61;99558.97;4973157;28;41015;-77
2022/05/21 08:33:10;;;;;;;1.03;0.93;;;;;;;23.11;42.82;99556.91;4972311;28;41627;-78
2022/05/21 08:35:40;;;;;;;0.87;0.70;;;;;;;23.08;42.37;99527.47;4955549;28;43653;-78
2022/05/21 08:38:10;;;;;;;1.10;0.90;;;;;;;24.43;41.49;99555.47;4971983;28;43400;-78
2022/05/21 08:40:44;;;;;;;1.00;0.70;;;;;;;25.48;38.44;99575.38;4940662;28;38896;-77
2022/05/21 08:43:25;;;;;;;0.80;0.80;;;;;;;27.02;36.26;99589.03;4972248;28;42095;-75
2022/05/21 08:46:08;;;;;;;0.63;0.60;;;;;;;27.13;35.76;99598.63;4970541;28;43737;-76
2022/05/21 08:48:39;;;;;;;2.13;0.80;;;;;;;26.88;36.15;99583.53;4939838;28;42224;-78
2022/05/21 08:51:15;;;;;;;2.50;1.00;;;;;;;26.98;35.28;99589.59;4971029;28;41124;-76
2022/05/21 08:53:49;;;;;;;0.93;0.80;;;;;;;27.77;35.33;99586.25;4970023;28;41888;-78
2022/05/21 08:56:20;;;;;;;0.70;0.70;;;;;;;28.34;33.62;99592.84;4971132;28;41830;-76
2022/05/21 08:58:49;;;;;;;1.73;1.00;;;;;;;28.29;33.69;99592.59;4960663;28;43237;-77
2022/05/21 09:01:20;;;;;;;1.30;0.73;;;;;;;27.79;34.24;99581.47;4971304;28;40754;-76
2022/05/21 09:03:50;;;;;;;1.23;0.70;;;;;;;27.87;34.13;99564.19;4968633;28;41707;-77
2022/05/21 09:06:30;;;;;;;1.53;0.83;;;;;;;28.02;33.83;99588.69;4954179;28;42392;-77
2022/05/21 09:09:04;;;;;;;2.30;0.83;;;;;;;27.88;34.17;99577.59;4971068;28;41207;-78
2022/05/21 09:11:38;;;;;;;1.17;0.80;;;;;;;27.63;34.28;99572.66;4954599;28;39368;-77
2022/05/21 09:14:13;;;;;;;1.87;1.20;;;;;;;26.84;34.26;99564.84;4954640;28;43959;-78
2022/05/21 09:17:00;;;;;;;0.87;0.70;;;;;;;26.76;35.14;99581.25;4940277;28;43053;-77
2022/05/21 09:19:35;;;;;;;2.10;0.80;;;;;;;26.61;35.44;99572.19;4954070;28;41895;-77
2022/05/21 09:22:05;;;;;;;0.80;0.80;;;;;;;26.65;36.25;99576.22;4955331;28;40326;-78
2022/05/21 09:24:40;;;;;;;1.70;0.80;;;;;;;26.77;36.22;99555.75;4971223;28;42719;-79
2022/05/21 09:27:27;;;;;;;0.93;0.73;;;;;;;27.51;34.68;99570.38;4955309;28;41875;-77
2022/05/21 09:30:10;;;;;;;2.10;0.80;;;;;;;28.12;33.91;99572.88;4968574;28;42322;-79
2022/05/21 09:32:39;;;;;;;0.83;0.63;;;;;;;28.07;32.29;99587.06;4953129;28;40690;-79
2022/05/21 09:35:11;;;;;;;0.70;0.70;;;;;;;27.40;33.23;99578.16;4971100;28;41759;-78
2022/05/21 09:37:40;;;;;;;0.90;0.90;;;;;;;26.73;34.18;99568.00;4969235;28;43512;-77
2022/05/21 09:40:30;;;;;;;0.83;0.60;;;;;;;26.18;35.74;99554.63;4954489;28;42311;-79
2022/05/21 09:45:54;;;;;;;1.00;0.70;;;;;;;27.35;34.79;99565.09;4862304;29;40915;-78
2022/05/21 09:48:23;;;;;;;1.03;0.73;;;;;;;28.43;33.31;99573.50;4948021;28;41905;-77
2022/05/21 09:50:53;;;;;;;2.10;0.70;;;;;;;29.47;31.59;99582.00;4970682;28;41433;-77
2022/05/21 09:53:27;;;;;;;1.67;0.70;;;;;;;29.94;29.82;99587.53;4970511;28;40661;-78
2022/05/21 09:56:02;;;;;;;1.53;0.70;;;;;;;29.88;29.01;99587.50;4970616;28;42056;-80
2022/05/21 09:58:34;;;;;;;0.67;0.53;;;;;;;29.10;29.62;99588.63;4970555;28;41964;-80
2022/05/21 10:01:02;;;;;;;1.33;0.60;;;;;;;28.70;30.09;99592.81;4970382;28;42791;-78
2022/05/21 10:03:47;;;;;;;1.57;0.57;;;;;;;28.47;31.29;99574.78;4970776;28;41307;-78
2022/05/21 10:06:21;;;;;;;1.53;0.57;;;;;;;28.68;31.39;99576.69;4953687;28;41828;-79
2022/05/21 10:11:48;;;;;;;1.20;0.93;;;;;;;28.85;30.48;99589.03;4954317;28;41312;-79
2022/05/21 10:14:21;;;;;;;1.67;0.70;;;;;;;28.89;29.31;99578.59;4971048;28;39166;-78
2022/05/21 10:16:54;;;;;;;0.97;0.70;;;;;;;29.21;30.07;99579.91;4970634;28;41939;-78
2022/05/21 10:19:30;;;;;;;2.13;0.90;;;;;;;29.55;29.71;99587.34;4967573;28;43745;-78
2022/05/21 10:22:09;;;;;;;1.17;0.53;;;;;;;29.48;29.26;99589.16;4968918;28;42272;-78
2022/05/21 10:24:51;;;;;;;1.20;0.80;;;;;;;28.94;30.54;99578.81;4952430;28;40636;-77
2022/05/21 10:27:32;;;;;;;0.50;0.40;;;;;;;28.55;30.28;99582.00;4954096;28;40689;-78
2022/05/21 10:30:08;;;;;;;1.17;0.83;;;;;;;28.14;30.45;99571.66;4954699;28;42017;-79
2022/05/21 10:33:04;;;;;;;1.00;0.70;;;;;;;27.82;31.24;99558.44;4942103;28;41404;-77
2022/05/21 10:35:43;;;;;;;1.00;0.50;;;;;;;27.53;31.11;99562.88;4952535;28;40928;-78
2022/05/21 10:38:22;;;;;;;0.80;0.60;;;;;;;27.25;31.60;99563.66;4954787;28;42134;-78
2022/05/21 10:40:57;;;;;;;2.07;0.70;;;;;;;26.99;32.43;99569.53;4972811;28;43754;-77
2022/05/21 10:43:52;;;;;;;1.07;0.70;;;;;;;26.84;32.03;99556.69;4973522;28;42290;-77
2022/05/21 10:46:35;;;;;;;1.33;0.60;;;;;;;26.71;32.34;99553.75;4973472;28;40034;-77
2022/05/21 10:49:25;;;;;;;3.17;0.77;;;;;;;26.64;31.80;99563.66;4957531;28;44087;-78
2022/05/21 10:52:01;;;;;;;1.97;0.90;;;;;;;26.58;32.90;99556.22;4973753;28;42600;-79
2022/05/21 10:54:48;;;;;;;2.33;0.80;;;;;;;26.67;32.91;99559.75;4957546;28;42286;-76
2022/05/21 10:57:35;;;;;;;0.60;0.60;;;;;;;26.83;32.79;99560.44;4971898;28;39804;-77
2022/05/21 11:00:10;;;;;;;2.50;0.70;;;;;;;26.88;33.38;99550.91;4953769;28;40761;-77
2022/05/21 11:03:12;;;;;;;1.63;0.70;;;;;;;26.71;33.46;99553.75;4956671;28;42797;-77
2022/05/21 11:06:06;;;;;;;1.90;0.80;;;;;;;26.45;32.68;99561.44;4942959;28;42350;-76
2022/05/21 11:08:40;;;;;;;1.43;0.70;;;;;;;26.46;34.67;99530.50;4954593;28;40758;-77
2022/05/21 11:11:13;;;;;;;1.80;0.63;;;;;;;26.90;33.52;99559.72;4972277;28;41881;-77
2022/05/21 11:13:47;;;;;;;1.67;0.80;;;;;;;27.52;32.41;99555.72;4973127;28;43434;-77
2022/05/21 11:16:23;;;;;;;1.97;1.17;;;;;;;28.20;31.79;99573.63;4971981;28;43161;-77
2022/05/21 11:18:56;;;;;;;0.60;0.50;;;;;;;28.82;32.76;99542.22;4953997;28;40028;-77
2022/05/21 11:21:30;;;;;;;1.63;0.67;;;;;;;29.37;32.36;99560.50;4956388;28;41887;-78
2022/05/21 11:24:02;;;;;;;1.40;0.70;;;;;;;29.54;30.99;99561.91;4972654;28;41766;-78
2022/05/21 11:26:37;;;;;;;1.13;0.50;;;;;;;29.87;32.19;99547.59;4973126;28;43653;-79
2022/05/21 11:29:14;;;;;;;4.57;0.80;;;;;;;30.36;30.90;99547.38;4971335;28;41933;-78
2022/05/21 11:37:30;;;;;;;0.50;0.50;;;;;;;32.30;27.58;99565.13;4970850;28;43444;-77
2022/05/21 11:39:58;;;;;;;2.50;0.70;;;;;;;32.76;27.69;99567.63;4973803;28;40009;-78
2022/05/21 11:42:28;;;;;;;3.23;0.77;;;;;;;33.15;25.66;99577.44;4972861;28;42866;-77
2022/05/21 11:44:58;;;;;;;2.67;0.87;;;;;;;33.61;24.82;99582.53;4953098;28;41710;-78
2022/05/21 11:47:54;;;;;;;2.43;1.00;;;;;;;34.13;24.43;99592.09;4963547;28;41307;-78
2022/05/21 11:50:28;;;;;;;1.27;0.80;;;;;;;34.74;24.85;99577.34;4972326;28;40924;-77
2022/05/21 11:53:01;;;;;;;1.47;0.80;;;;;;;35.32;23.59;99584.06;4969274;28;41874;-78
2022/05/21 11:55:30;;;;;;;0.80;0.70;;;;;;;35.88;24.35;99565.00;4970890;28;42836;-78
2022/05/21 11:58:00;;;;;;;2.83;0.80;;;;;;;36.12;21.90;99589.75;4972379;28;43216;-78
2022/05/21 12:00:50;;;;;;;1.37;0.83;;;;;;;35.90;21.95;99573.88;4971967;28;40793;-77
2022/05/21 12:03:22;;;;;;;0.80;0.80;;;;;;;35.46;21.77;99580.00;4956054;28;41064;-78
2022/05/21 12:06:18;;;;;;;1.53;0.83;;;;;;;35.75;22.63;99562.50;4972209;28;42829;-78
2022/05/21 12:08:48;;;;;;;1.50;0.70;;;;;;;36.63;21.52;99573.16;4972227;28;43609;-78
2022/05/21 12:11:46;;;;;;;1.00;0.73;;;;;;;37.12;21.49;99567.94;4955866;28;40981;-77
2022/05/21 12:14:22;;;;;;;0.80;0.80;;;;;;;36.79;21.76;99565.19;4935895;28;41517;-77
2022/05/21 12:16:53;;;;;;;0.87;0.80;;;;;;;36.33;21.46;99564.31;4968997;28;42906;-78
2022/05/21 12:20:07;;;;;;;0.80;0.80;;;;;;;36.07;22.07;99542.78;4955767;28;41526;-78
2022/05/21 12:22:40;;;;;;;0.93;0.80;;;;;;;36.45;22.40;99544.94;4971997;28;41071;-78
2022/05/21 12:25:13;;;;;;;0.70;0.70;;;;;;;36.62;22.12;99546.63;4955735;28;40676;-78